sensor_id;sensor_type;location;lat;lon;timestamp;pressure;altitude;pressure_sealevel;temperature;humidity
17383;BME280;8809;51.892;8.384;2022-08-01T00:02:00;100489.63;;;19.84;100.00
17383;BME280;8809;51.892;8.384;2022-08-01T00:04:28;100485.19;;;19.80;100.00
17383;BME280;8809;51.892;8.384;2022-08-01T00:06:55;100492.28;;;19.86;100.00
17383;BME280;8809;51.892;8.384;2022-08-01T00:09:22;100488.75;;;19.78;100.00
17383;BME280;8809;51.892;8.384;2022-08-01T00:11:49;100485.19;;;19.80;100.00
17383;BME280;8809;51.892;8.384;2022-08-01T00:14:16;100490.47;;;19.80;100.00
17383;BME280;8809;51.892;8.384;2022-08-01T00:16:43;100486.97;;;19.77;100.00
17383;BME280;8809;51.892;8.384;2022-08-01T00:19:12;100488.72;;;19.81;100.00
17383;BME280;8809;51.892;8.384;2022-08-01T00:21:39;100486.97;;;19.77;100.00
17383;BME280;8809;51.892;8.384;2022-08-01T00:24:06;100482.53;;;19.73;100.00
17383;BME280;8809;51.892;8.384;2022-08-01T00:26:33;100492.25;;;19.74;100.00
17383;BME280;8809;51.892;8.384;2022-08-01T00:29:00;100480.78;;;19.73;100.00
17383;BME280;8809;51.892;8.384;2022-08-01T00:31:27;100486.94;;;19.72;100.00
17383;BME280;8809;51.892;8.384;2022-08-01T00:33:54;100487.84;;;19.68;100.00
17383;BME280;8809;51.892;8.384;2022-08-01T00:36:23;100493.13;;;19.68;100.00
17383;BME280;8809;51.892;8.384;2022-08-01T00:38:50;100493.13;;;19.67;100.00
17383;BME280;8809;51.892;8.384;2022-08-01T00:41:17;100490.47;;;19.67;100.00
17383;BME280;8809;51.892;8.384;2022-08-01T00:43:44;100492.22;;;19.64;100.00
17383;BME280;8809;51.892;8.384;2022-08-01T00:46:11;100486.03;;;19.59;100.00
17383;BME280;8809;51.892;8.384;2022-08-01T00:48:38;100484.28;;;19.58;100.00
17383;BME280;8809;51.892;8.384;2022-08-01T00:51:06;100484.25;;;19.57;100.00
17383;BME280;8809;51.892;8.384;2022-08-01T00:53:35;100484.25;;;19.55;100.00
17383;BME280;8809;51.892;8.384;2022-08-01T00:56:03;100486.91;;;19.55;100.00
17383;BME280;8809;51.892;8.384;2022-08-01T00:58:30;100485.13;;;19.56;100.00
17383;BME280;8809;51.892;8.384;2022-08-01T01:00:58;100490.41;;;19.51;100.00
17383;BME280;8809;51.892;8.384;2022-08-01T01:03:25;100491.31;;;19.49;100.00
17383;BME280;8809;51.892;8.384;2022-08-01T01:06:07;100488.66;;;19.50;100.00
17383;BME280;8809;51.892;8.384;2022-08-01T01:08:43;100493.06;;;19.50;100.00
17383;BME280;8809;51.892;8.384;2022-08-01T01:11:16;100491.31;;;19.49;100.00
17383;BME280;8809;51.892;8.384;2022-08-01T01:13:52;100489.53;;;19.49;100.00
17383;BME280;8809;51.892;8.384;2022-08-01T01:16:22;100487.78;;;19.48;100.00
17383;BME280;8809;51.892;8.384;2022-08-01T01:18:53;100495.69;;;19.51;100.00
17383;BME280;8809;51.892;8.384;2022-08-01T01:21:54;100495.72;;;19.48;100.00
17383;BME280;8809;51.892;8.384;2022-08-01T01:24:33;100494.81;;;19.52;100.00
17383;BME280;8809;51.892;8.384;2022-08-01T01:27:10;100487.75;;;19.53;100.00
17383;BME280;8809;51.892;8.384;2022-08-01T01:29:48;100491.28;;;19.53;100.00
17383;BME280;8809;51.892;8.384;2022-08-01T01:32:19;100482.47;;;19.53;100.00
17383;BME280;8809;51.892;8.384;2022-08-01T01:34:49;100490.44;;;19.56;100.00
17383;BME280;8809;51.892;8.384;2022-08-01T01:37:18;100491.31;;;19.56;100.00
17383;BME280;8809;51.892;8.384;2022-08-01T01:39:49;100492.19;;;19.57;100.00
17383;BME280;8809;51.892;8.384;2022-08-01T01:42:18;100489.53;;;19.55;100.00
17383;BME280;8809;51.892;8.384;2022-08-01T01:44:48;100495.72;;;19.54;100.00
17383;BME280;8809;51.892;8.384;2022-08-01T01:47:16;100505.41;;;19.54;100.00
17383;BME280;8809;51.892;8.384;2022-08-01T01:49:46;100503.63;;;19.51;100.00
17383;BME280;8809;51.892;8.384;2022-08-01T01:52:16;100499.25;;;19.53;100.00
17383;BME280;8809;51.892;8.384;2022-08-01T01:54:47;100499.25;;;19.50;100.00
17383;BME280;8809;51.892;8.384;2022-08-01T01:57:16;100500.13;;;19.48;100.00
17383;BME280;8809;51.892;8.384;2022-08-01T01:59:46;100501.81;;;19.44;100.00
17383;BME280;8809;51.892;8.384;2022-08-01T02:02:16;100512.38;;;19.43;100.00
17383;BME280;8809;51.892;8.384;2022-08-01T02:04:45;100506.22;;;19.42;100.00
17383;BME280;8809;51.892;8.384;2022-08-01T02:07:17;100504.47;;;19.40;100.00
17383;BME280;8809;51.892;8.384;2022-08-01T02:09:46;100506.22;;;19.39;100.00
17383;BME280;8809;51.892;8.384;2022-08-01T02:12:16;100505.34;;;19.39;100.00
17383;BME280;8809;51.892;8.384;2022-08-01T02:14:46;100504.44;;;19.38;100.00
17383;BME280;8809;51.892;8.384;2022-08-01T02:17:16;100507.06;;;19.35;100.00
17383;BME280;8809;51.892;8.384;2022-08-01T02:19:44;100504.41;;;19.34;100.00
17383;BME280;8809;51.892;8.384;2022-08-01T02:22:15;100506.19;;;19.30;100.00
17383;BME280;8809;51.892;8.384;2022-08-01T02:24:49;100511.47;;;19.30;100.00
17383;BME280;8809;51.892;8.384;2022-08-01T02:27:23;100507.03;;;19.27;100.00
17383;BME280;8809;51.892;8.384;2022-08-01T02:29:53;100512.31;;;19.26;100.00
17383;BME280;8809;51.892;8.384;2022-08-01T02:32:29;100509.66;;;19.23;100.00
17383;BME280;8809;51.892;8.384;2022-08-01T02:35:00;100505.25;;;19.22;100.00
17383;BME280;8809;51.892;8.384;2022-08-01T02:37:31;100503.50;;;19.21;100.00
17383;BME280;8809;51.892;8.384;2022-08-01T02:40:00;100507.00;;;19.20;100.00
17383;BME280;8809;51.892;8.384;2022-08-01T02:42:30;100511.41;;;19.18;100.00
17383;BME280;8809;51.892;8.384;2022-08-01T02:45:00;100509.63;;;19.17;100.00
17383;BME280;8809;51.892;8.384;2022-08-01T02:47:30;100510.50;;;19.14;100.00
17383;BME280;8809;51.892;8.384;2022-08-01T02:49:59;100512.25;;;19.14;100.00
17383;BME280;8809;51.892;8.384;2022-08-01T02:52:30;100516.66;;;19.12;100.00
17383;BME280;8809;51.892;8.384;2022-08-01T02:54:59;100510.50;;;19.11;100.00
17383;BME280;8809;51.892;8.384;2022-08-01T02:57:28;100520.16;;;19.09;100.00
17383;BME280;8809;51.892;8.384;2022-08-01T02:59:56;100521.94;;;19.09;100.00
17383;BME280;8809;51.892;8.384;2022-08-01T03:02:26;100515.72;;;19.05;100.00
17383;BME280;8809;51.892;8.384;2022-08-01T03:04:57;100515.72;;;19.04;100.00
17383;BME280;8809;51.892;8.384;2022-08-01T03:07:26;100518.34;;;19.04;100.00
17383;BME280;8809;51.892;8.384;2022-08-01T03:09:56;100523.66;;;19.01;100.00
17383;BME280;8809;51.892;8.384;2022-08-01T03:12:26;100520.13;;;19.02;100.00
17383;BME280;8809;51.892;8.384;2022-08-01T03:14:56;100521.00;;;18.99;100.00
17383;BME280;8809;51.892;8.384;2022-08-01T03:17:25;100528.91;;;18.98;100.00
17383;BME280;8809;51.892;8.384;2022-08-01T03:19:54;100528.03;;;18.97;100.00
17383;BME280;8809;51.892;8.384;2022-08-01T03:22:26;100525.38;;;18.97;100.00
17383;BME280;8809;51.892;8.384;2022-08-01T03:24:56;100531.53;;;18.96;100.00
17383;BME280;8809;51.892;8.384;2022-08-01T03:27:24;100532.41;;;18.94;100.00
17383;BME280;8809;51.892;8.384;2022-08-01T03:29:55;100535.06;;;18.95;100.00
17383;BME280;8809;51.892;8.384;2022-08-01T03:32:24;100535.94;;;18.94;100.00
17383;BME280;8809;51.892;8.384;2022-08-01T03:34:51;100540.34;;;18.92;100.00
17383;BME280;8809;51.892;8.384;2022-08-01T03:37:22;100538.59;;;18.93;100.00
17383;BME280;8809;51.892;8.384;2022-08-01T03:39:55;100545.63;;;18.94;100.00
17383;BME280;8809;51.892;8.384;2022-08-01T03:42:29;100546.50;;;18.96;100.00
17383;BME280;8809;51.892;8.384;2022-08-01T03:45:02;100541.22;;;18.93;100.00
17383;BME280;8809;51.892;8.384;2022-08-01T03:47:31;100545.66;;;18.97;100.00
17383;BME280;8809;51.892;8.384;2022-08-01T03:50:01;100550.03;;;18.95;100.00
17383;BME280;8809;51.892;8.384;2022-08-01T03:52:32;100546.50;;;18.94;100.00
17383;BME280;8809;51.892;8.384;2022-08-01T03:55:04;100545.63;;;18.94;100.00
17383;BME280;8809;51.892;8.384;2022-08-01T03:57:32;100545.63;;;18.94;100.00
17383;BME280;8809;51.892;8.384;2022-08-01T04:00:05;100537.69;;;18.94;100.00
17383;BME280;8809;51.892;8.384;2022-08-01T04:02:36;100539.47;;;18.92;100.00
17383;BME280;8809;51.892;8.384;2022-08-01T04:05:04;100541.22;;;18.93;100.00
17383;BME280;8809;51.892;8.384;2022-08-01T04:07:33;100541.22;;;18.93;100.00
17383;BME280;8809;51.892;8.384;2022-08-01T04:10:04;100542.97;;;18.95;100.00
17383;BME280;8809;51.892;8.384;2022-08-01T04:12:33;100541.22;;;18.93;100.00
17383;BME280;8809;51.892;8.384;2022-08-01T04:15:00;100541.22;;;18.91;100.00
17383;BME280;8809;51.892;8.384;2022-08-01T04:17:30;100548.25;;;18.90;100.00
17383;BME280;8809;51.892;8.384;2022-08-01T04:19:58;100553.53;;;18.94;100.00
17383;BME280;8809;51.892;8.384;2022-08-01T04:22:25;100546.50;;;18.91;100.00
17383;BME280;8809;51.892;8.384;2022-08-01T04:24:55;100553.53;;;18.94;100.00
17383;BME280;8809;51.892;8.384;2022-08-01T04:27:31;100555.31;;;18.95;100.00
17383;BME280;8809;51.892;8.384;2022-08-01T04:30:00;100556.19;;;18.95;100.00
17383;BME280;8809;51.892;8.384;2022-08-01T04:32:33;100560.59;;;18.95;100.00
17383;BME280;8809;51.892;8.384;2022-08-01T04:35:04;100562.38;;;18.94;100.00
17383;BME280;8809;51.892;8.384;2022-08-01T04:37:33;100558.84;;;18.95;100.00
17383;BME280;8809;51.892;8.384;2022-08-01T04:40:12;100567.66;;;18.96;100.00
17383;BME280;8809;51.892;8.384;2022-08-01T04:42:41;100562.38;;;18.96;100.00
17383;BME280;8809;51.892;8.384;2022-08-01T04:45:09;100563.25;;;18.96;100.00
17383;BME280;8809;51.892;8.384;2022-08-01T04:47:39;100564.13;;;18.95;100.00
17383;BME280;8809;51.892;8.384;2022-08-01T04:50:07;100576.50;;;18.98;100.00
17383;BME280;8809;51.892;8.384;2022-08-01T04:52:38;100578.28;;;18.99;100.00
17383;BME280;8809;51.892;8.384;2022-08-01T04:55:08;100571.19;;;18.96;100.00
17383;BME280;8809;51.892;8.384;2022-08-01T04:57:37;100576.47;;;18.96;100.00
17383;BME280;8809;51.892;8.384;2022-08-01T05:00:09;100580.03;;;18.98;100.00
17383;BME280;8809;51.892;8.384;2022-08-01T05:02:37;100579.16;;;18.99;100.00
17383;BME280;8809;51.892;8.384;2022-08-01T05:05:05;100586.19;;;18.97;100.00
17383;BME280;8809;51.892;8.384;2022-08-01T05:07:33;100580.91;;;18.99;100.00
17383;BME280;8809;51.892;8.384;2022-08-01T05:10:05;100577.41;;;19.00;100.00
17383;BME280;8809;51.892;8.384;2022-08-01T05:12:32;100581.81;;;19.01;100.00
17383;BME280;8809;51.892;8.384;2022-08-01T05:14:59;100578.31;;;19.02;100.00
17383;BME280;8809;51.892;8.384;2022-08-01T05:17:28;100586.22;;;19.03;100.00
17383;BME280;8809;51.892;8.384;2022-08-01T05:19:55;100580.06;;;19.03;100.00
17383;BME280;8809;51.892;8.384;2022-08-01T05:22:22;100584.47;;;19.05;100.00
17383;BME280;8809;51.892;8.384;2022-08-01T05:24:51;100584.47;;;19.04;100.00
17383;BME280;8809;51.892;8.384;2022-08-01T05:27:18;100585.34;;;19.01;100.00
17383;BME280;8809;51.892;8.384;2022-08-01T05:29:45;100583.59;;;19.02;100.00
17383;BME280;8809;51.892;8.384;2022-08-01T05:32:14;100584.47;;;19.05;100.00
17383;BME280;8809;51.892;8.384;2022-08-01T05:34:43;100588.91;;;19.08;100.00
17383;BME280;8809;51.892;8.384;2022-08-01T05:37:10;100595.09;;;19.08;100.00
17383;BME280;8809;51.892;8.384;2022-08-01T05:39:37;100594.19;;;19.08;100.00
17383;BME280;8809;51.892;8.384;2022-08-01T05:42:05;100595.09;;;19.08;100.00
17383;BME280;8809;51.892;8.384;2022-08-01T05:44:32;100596.88;;;19.09;100.00
17383;BME280;8809;51.892;8.384;2022-08-01T05:46:59;100601.25;;;19.09;100.00
17383;BME280;8809;51.892;8.384;2022-08-01T05:49:28;100598.66;;;19.12;100.00
17383;BME280;8809;51.892;8.384;2022-08-01T05:51:56;100604.81;;;19.12;100.00
17383;BME280;8809;51.892;8.384;2022-08-01T05:54:23;100603.03;;;19.13;100.00
17383;BME280;8809;51.892;8.384;2022-08-01T05:56:50;100603.94;;;19.15;100.00
17383;BME280;8809;51.892;8.384;2022-08-01T05:59:18;100604.84;;;19.17;100.00
17383;BME280;8809;51.892;8.384;2022-08-01T06:01:46;100609.28;;;19.19;100.00
17383;BME280;8809;51.892;8.384;2022-08-01T06:04:13;100616.31;;;19.19;100.00
17383;BME280;8809;51.892;8.384;2022-08-01T06:06:40;100618.97;;;19.19;100.00
17383;BME280;8809;51.892;8.384;2022-08-01T06:09:08;100611.03;;;19.19;100.00
17383;BME280;8809;51.892;8.384;2022-08-01T06:11:36;100615.47;;;19.21;100.00
17383;BME280;8809;51.892;8.384;2022-08-01T06:14:03;100618.97;;;19.20;100.00
17383;BME280;8809;51.892;8.384;2022-08-01T06:16:30;100610.16;;;19.20;100.00
17383;BME280;8809;51.892;8.384;2022-08-01T06:18:57;100620.75;;;19.21;100.00
17383;BME280;8809;51.892;8.384;2022-08-01T06:21:24;100612.81;;;19.23;100.00
17383;BME280;8809;51.892;8.384;2022-08-01T06:23:51;100619.00;;;19.25;100.00
17383;BME280;8809;51.892;8.384;2022-08-01T06:26:20;100623.44;;;19.29;100.00
17383;BME280;8809;51.892;8.384;2022-08-01T06:28:47;100621.66;;;19.28;100.00
17383;BME280;8809;51.892;8.384;2022-08-01T06:31:14;100627.00;;;19.34;100.00
17383;BME280;8809;51.892;8.384;2022-08-01T06:33:41;100625.25;;;19.38;100.00
17383;BME280;8809;51.892;8.384;2022-08-01T06:36:08;100625.28;;;19.42;100.00
17383;BME280;8809;51.892;8.384;2022-08-01T06:38:35;100629.69;;;19.42;100.00
17383;BME280;8809;51.892;8.384;2022-08-01T06:41:03;100630.59;;;19.45;100.00
17383;BME280;8809;51.892;8.384;2022-08-01T06:43:31;100631.47;;;19.46;100.00
17383;BME280;8809;51.892;8.384;2022-08-01T06:45:58;100632.44;;;19.51;100.00
17383;BME280;8809;51.892;8.384;2022-08-01T06:48:26;100630.69;;;19.54;100.00
17383;BME280;8809;51.892;8.384;2022-08-01T06:50:53;100629.84;;;19.58;100.00
17383;BME280;8809;51.892;8.384;2022-08-01T06:53:33;100633.38;;;19.60;100.00
17383;BME280;8809;51.892;8.384;2022-08-01T06:56:00;100628.97;;;19.66;100.00
17383;BME280;8809;51.892;8.384;2022-08-01T06:58:28;100633.41;;;19.67;100.00
17383;BME280;8809;51.892;8.384;2022-08-01T07:00:56;100627.25;;;19.69;100.00
17383;BME280;8809;51.892;8.384;2022-08-01T07:03:23;100629.00;;;19.67;100.00
17383;BME280;8809;51.892;8.384;2022-08-01T07:05:51;100630.78;;;19.70;100.00
17383;BME280;8809;51.892;8.384;2022-08-01T07:08:18;100629.88;;;19.68;100.00
17383;BME280;8809;51.892;8.384;2022-08-01T07:10:45;100627.22;;;19.68;100.00
17383;BME280;8809;51.892;8.384;2022-08-01T07:13:12;100628.97;;;19.66;100.00
17383;BME280;8809;51.892;8.384;2022-08-01T07:15:41;100621.94;;;19.69;100.00
17383;BME280;8809;51.892;8.384;2022-08-01T07:18:10;100635.22;;;19.75;100.00
17383;BME280;8809;51.892;8.384;2022-08-01T07:20:37;100634.34;;;19.79;100.00
17383;BME280;8809;51.892;8.384;2022-08-01T07:23:04;100632.59;;;19.83;100.00
17383;BME280;8809;51.892;8.384;2022-08-01T07:25:32;100641.44;;;19.86;100.00
17383;BME280;8809;51.892;8.384;2022-08-01T07:27:59;100632.63;;;19.89;100.00
17383;BME280;8809;51.892;8.384;2022-08-01T07:30:26;100630.84;;;19.91;100.00
17383;BME280;8809;51.892;8.384;2022-08-01T07:32:53;100631.72;;;19.90;100.00
17383;BME280;8809;51.892;8.384;2022-08-01T07:35:21;100640.56;;;19.89;100.00
17383;BME280;8809;51.892;8.384;2022-08-01T07:37:49;100639.69;;;19.91;100.00
17383;BME280;8809;51.892;8.384;2022-08-01T07:40:17;100644.97;;;19.91;100.00
17383;BME280;8809;51.892;8.384;2022-08-01T07:42:44;100650.28;;;19.93;100.00
17383;BME280;8809;51.892;8.384;2022-08-01T07:45:11;100650.31;;;19.96;100.00
17383;BME280;8809;51.892;8.384;2022-08-01T07:47:39;100645.91;;;19.98;100.00
17383;BME280;8809;51.892;8.384;2022-08-01T07:50:07;100655.63;;;20.02;100.00
17383;BME280;8809;51.892;8.384;2022-08-01T07:52:38;100652.97;;;19.99;100.00
17383;BME280;8809;51.892;8.384;2022-08-01T07:55:07;100653.84;;;19.98;100.00
17383;BME280;8809;51.892;8.384;2022-08-01T07:57:34;100653.84;;;19.96;100.00
17383;BME280;8809;51.892;8.384;2022-08-01T08:00:04;100660.00;;;20.00;100.00
17383;BME280;8809;51.892;8.384;2022-08-01T08:02:32;100659.13;;;20.01;100.00
17383;BME280;8809;51.892;8.384;2022-08-01T08:05:00;100659.13;;;19.99;100.00
17383;BME280;8809;51.892;8.384;2022-08-01T08:07:27;100664.47;;;20.04;100.00
17383;BME280;8809;51.892;8.384;2022-08-01T08:09:55;100670.66;;;20.08;100.00
17383;BME280;8809;51.892;8.384;2022-08-01T08:12:23;100671.56;;;20.13;100.00
17383;BME280;8809;51.892;8.384;2022-08-01T08:14:50;100670.72;;;20.18;100.00
17383;BME280;8809;51.892;8.384;2022-08-01T08:17:17;100670.72;;;20.24;100.00
17383;BME280;8809;51.892;8.384;2022-08-01T08:19:44;100677.81;;;20.31;100.00
17383;BME280;8809;51.892;8.384;2022-08-01T08:22:11;100674.28;;;20.32;100.00
17383;BME280;8809;51.892;8.384;2022-08-01T08:24:38;100675.16;;;20.33;100.00
17383;BME280;8809;51.892;8.384;2022-08-01T08:27:06;100678.69;;;20.33;100.00
17383;BME280;8809;51.892;8.384;2022-08-01T08:29:33;100676.06;;;20.33;100.00
17383;BME280;8809;51.892;8.384;2022-08-01T08:32:01;100681.41;;;20.36;100.00
17383;BME280;8809;51.892;8.384;2022-08-01T08:34:29;100677.88;;;20.38;100.00
17383;BME280;8809;51.892;8.384;2022-08-01T08:36:56;100679.63;;;20.38;100.00
17383;BME280;8809;51.892;8.384;2022-08-01T08:39:25;100678.75;;;20.41;100.00
17383;BME280;8809;51.892;8.384;2022-08-01T08:41:52;100676.09;;;20.43;100.00
17383;BME280;8809;51.892;8.384;2022-08-01T08:44:21;100680.56;;;20.47;100.00
17383;BME280;8809;51.892;8.384;2022-08-01T08:46:50;100679.66;;;20.51;100.00
17383;BME280;8809;51.892;8.384;2022-08-01T08:49:19;100686.72;;;20.52;100.00
17383;BME280;8809;51.892;8.384;2022-08-01T08:51:48;100694.69;;;20.52;100.00
17383;BME280;8809;51.892;8.384;2022-08-01T08:54:16;100690.25;;;20.51;100.00
17383;BME280;8809;51.892;8.384;2022-08-01T08:56:46;100691.16;;;20.53;100.00
17383;BME280;8809;51.892;8.384;2022-08-01T08:59:13;100694.69;;;20.53;100.00
17383;BME280;8809;51.892;8.384;2022-08-01T09:01:43;100689.41;;;20.55;100.00
17383;BME280;8809;51.892;8.384;2022-08-01T09:04:11;100695.59;;;20.60;100.00
17383;BME280;8809;51.892;8.384;2022-08-01T09:06:38;100696.47;;;20.63;100.00
17383;BME280;8809;51.892;8.384;2022-08-01T09:09:07;100696.47;;;20.69;100.00
17383;BME280;8809;51.892;8.384;2022-08-01T09:11:35;100704.44;;;20.71;100.00
17383;BME280;8809;51.892;8.384;2022-08-01T09:14:05;100705.34;;;20.73;100.00
17383;BME280;8809;51.892;8.384;2022-08-01T09:16:34;100706.22;;;20.77;100.00
17383;BME280;8809;51.892;8.384;2022-08-01T09:19:13;100716.81;;;20.78;100.00
17383;BME280;8809;51.892;8.384;2022-08-01T09:21:56;100721.25;;;20.79;100.00
17383;BME280;8809;51.892;8.384;2022-08-01T09:24:24;100727.44;;;20.81;100.00
17383;BME280;8809;51.892;8.384;2022-08-01T09:26:52;100720.38;;;20.80;100.00
17383;BME280;8809;51.892;8.384;2022-08-01T09:29:27;100723.00;;;20.79;100.00
17383;BME280;8809;51.892;8.384;2022-08-01T09:31:55;100725.69;;;20.76;100.00
17383;BME280;8809;51.892;8.384;2022-08-01T09:34:27;100728.31;;;20.72;100.00
17383;BME280;8809;51.892;8.384;2022-08-01T09:36:57;100733.63;;;20.71;100.00
17383;BME280;8809;51.892;8.384;2022-08-01T09:39:26;100736.25;;;20.68;100.00
17383;BME280;8809;51.892;8.384;2022-08-01T09:41:54;100737.13;;;20.68;100.00
17383;BME280;8809;51.892;8.384;2022-08-01T09:44:38;100739.78;;;20.67;100.00
17383;BME280;8809;51.892;8.384;2022-08-01T09:47:05;100741.56;;;20.68;100.00
17383;BME280;8809;51.892;8.384;2022-08-01T09:49:35;100741.56;;;20.68;100.00
17383;BME280;8809;51.892;8.384;2022-08-01T09:52:14;100745.06;;;20.67;100.00
17383;BME280;8809;51.892;8.384;2022-08-01T09:54:42;100744.22;;;20.66;100.00
17383;BME280;8809;51.892;8.384;2022-08-01T09:57:12;100742.44;;;20.65;100.00
17383;BME280;8809;51.892;8.384;2022-08-01T09:59:42;100734.50;;;20.64;100.00
17383;BME280;8809;51.892;8.384;2022-08-01T10:02:10;100737.09;;;20.59;100.00
17383;BME280;8809;51.892;8.384;2022-08-01T10:04:51;100745.94;;;20.60;100.00
17383;BME280;8809;51.892;8.384;2022-08-01T10:07:19;100746.81;;;20.53;100.00
17383;BME280;8809;51.892;8.384;2022-08-01T10:09:46;100751.25;;;20.55;100.00
17383;BME280;8809;51.892;8.384;2022-08-01T10:12:15;100757.41;;;20.53;100.00
17383;BME280;8809;51.892;8.384;2022-08-01T10:14:43;100753.91;;;20.55;100.00
17383;BME280;8809;51.892;8.384;2022-08-01T10:17:13;100749.47;;;20.57;100.00
17383;BME280;8809;51.892;8.384;2022-08-01T10:19:42;100750.38;;;20.61;100.00
17383;BME280;8809;51.892;8.384;2022-08-01T10:22:12;100750.38;;;20.67;100.00
17383;BME280;8809;51.892;8.384;2022-08-01T10:24:43;100754.81;;;20.69;100.00
17383;BME280;8809;51.892;8.384;2022-08-01T10:27:14;100758.34;;;20.68;100.00
17383;BME280;8809;51.892;8.384;2022-08-01T10:29:47;100757.44;;;20.62;100.00
17383;BME280;8809;51.892;8.384;2022-08-01T10:32:17;100753.91;;;20.60;100.00
17383;BME280;8809;51.892;8.384;2022-08-01T10:34:44;100753.91;;;20.57;100.00
17383;BME280;8809;51.892;8.384;2022-08-01T10:37:14;100759.19;;;20.54;100.00
17383;BME280;8809;51.892;8.384;2022-08-01T10:39:42;100760.94;;;20.52;100.00
17383;BME280;8809;51.892;8.384;2022-08-01T10:42:11;100760.06;;;20.45;100.00
17383;BME280;8809;51.892;8.384;2022-08-01T10:44:39;100749.44;;;20.42;100.00
17383;BME280;8809;51.892;8.384;2022-08-01T10:47:09;100758.25;;;20.43;100.00
17383;BME280;8809;51.892;8.384;2022-08-01T10:49:43;100748.56;;;20.43;100.00
17383;BME280;8809;51.892;8.384;2022-08-01T10:52:17;100750.31;;;20.44;100.00
17383;BME280;8809;51.892;8.384;2022-08-01T10:54:44;100751.22;;;20.45;100.00
17383;BME280;8809;51.892;8.384;2022-08-01T10:57:12;100753.00;;;20.46;100.00
17383;BME280;8809;51.892;8.384;2022-08-01T10:59:49;100753.88;;;20.45;100.00
17383;BME280;8809;51.892;8.384;2022-08-01T11:02:27;100760.91;;;20.43;100.00
17383;BME280;8809;51.892;8.384;2022-08-01T11:04:58;100768.84;;;20.41;100.00
17383;BME280;8809;51.892;8.384;2022-08-01T11:07:42;100767.94;;;20.39;100.00
17383;BME280;8809;51.892;8.384;2022-08-01T11:10:19;100770.59;;;20.39;100.00
17383;BME280;8809;51.892;8.384;2022-08-01T11:12:48;100770.63;;;20.36;100.00
17383;BME280;8809;51.892;8.384;2022-08-01T11:15:23;100764.44;;;20.35;100.00
17383;BME280;8809;51.892;8.384;2022-08-01T11:17:54;100776.72;;;20.32;100.00
17383;BME280;8809;51.892;8.384;2022-08-01T11:20:23;100777.59;;;20.28;100.00
17383;BME280;8809;51.892;8.384;2022-08-01T11:23:25;100773.19;;;20.25;100.00
17383;BME280;8809;51.892;8.384;2022-08-01T11:26:14;100781.09;;;20.22;100.00
17383;BME280;8809;51.892;8.384;2022-08-01T11:28:43;100786.38;;;20.21;100.00
17383;BME280;8809;51.892;8.384;2022-08-01T11:31:31;100778.41;;;20.19;100.00
17383;BME280;8809;51.892;8.384;2022-08-01T11:33:59;100780.19;;;20.17;100.00
17383;BME280;8809;51.892;8.384;2022-08-01T11:36:27;100782.84;;;20.16;100.00
17383;BME280;8809;51.892;8.384;2022-08-01T11:39:26;100774.00;;;20.15;100.00
17383;BME280;8809;51.892;8.384;2022-08-01T11:42:19;100775.78;;;20.19;100.00
17383;BME280;8809;51.892;8.384;2022-08-01T11:44:50;100764.31;;;20.23;100.00
17383;BME280;8809;51.892;8.384;2022-08-01T11:47:17;100780.25;;;20.28;100.00
17383;BME280;8809;51.892;8.384;2022-08-01T11:49:47;100786.44;;;20.31;100.00
17383;BME280;8809;51.892;8.384;2022-08-01T11:52:17;100786.44;;;20.31;100.00
17383;BME280;8809;51.892;8.384;2022-08-01T11:54:48;100783.88;;;20.36;100.00
17383;BME280;8809;51.892;8.384;2022-08-01T11:57:18;100786.53;;;20.44;100.00
17383;BME280;8809;51.892;8.384;2022-08-01T11:59:48;100777.75;;;20.52;100.00
17383;BME280;8809;51.892;8.384;2022-08-01T12:02:18;100781.31;;;20.62;100.00
17383;BME280;8809;51.892;8.384;2022-08-01T12:04:47;100775.13;;;20.69;100.00
17383;BME280;8809;51.892;8.384;2022-08-01T12:07:16;100775.16;;;20.73;100.00
17383;BME280;8809;51.892;8.384;2022-08-01T12:09:43;100778.69;;;20.77;100.00
17383;BME280;8809;51.892;8.384;2022-08-01T12:12:16;100776.94;;;20.79;100.00
17383;BME280;8809;51.892;8.384;2022-08-01T12:14:45;100784.03;;;20.83;100.00
17383;BME280;8809;51.892;8.384;2022-08-01T12:17:20;100798.16;;;20.81;100.00
17383;BME280;8809;51.892;8.384;2022-08-01T12:19:54;100799.03;;;20.78;100.00
17383;BME280;8809;51.892;8.384;2022-08-01T12:22:23;100804.34;;;20.81;100.00
17383;BME280;8809;51.892;8.384;2022-08-01T12:24:50;100808.78;;;20.87;100.00
17383;BME280;8809;51.892;8.384;2022-08-01T12:27:27;100810.53;;;20.86;100.00
17383;BME280;8809;51.892;8.384;2022-08-01T12:29:55;100816.75;;;20.85;100.00
17383;BME280;8809;51.892;8.384;2022-08-01T12:32:24;100814.97;;;20.81;100.00
17383;BME280;8809;51.892;8.384;2022-08-01T12:34:53;100814.94;;;20.80;100.00
17383;BME280;8809;51.892;8.384;2022-08-01T12:37:21;100824.69;;;20.76;100.00
17383;BME280;8809;51.892;8.384;2022-08-01T12:39:49;100825.53;;;20.72;100.00
17383;BME280;8809;51.892;8.384;2022-08-01T12:42:16;100821.09;;;20.68;100.00
17383;BME280;8809;51.892;8.384;2022-08-01T12:44:47;100826.41;;;20.65;100.00
17383;BME280;8809;51.892;8.384;2022-08-01T12:47:18;100826.38;;;20.62;100.00
17383;BME280;8809;51.892;8.384;2022-08-01T12:49:47;100821.94;;;20.59;100.00
17383;BME280;8809;51.892;8.384;2022-08-01T12:52:15;100826.34;;;20.53;100.00
17383;BME280;8809;51.892;8.384;2022-08-01T12:55:08;100826.31;;;20.50;100.00
17383;BME280;8809;51.892;8.384;2022-08-01T12:57:37;100823.66;;;20.48;100.00
17383;BME280;8809;51.892;8.384;2022-08-01T13:00:14;100821.00;;;20.48;100.00
17383;BME280;8809;51.892;8.384;2022-08-01T13:02:43;100818.38;;;20.51;100.00
17383;BME280;8809;51.892;8.384;2022-08-01T13:05:11;100815.72;;;20.53;100.00